Terminal Aerodrome Forecast
Issued by NWS Pendleton, OR

Home | Current Version | Previous Version | Text Only | Print | Product List | Glossary On
Versions: 1 2 3 4 5 6 7 8 9 10 11 12 13 14 15 16 17
763
FTUS46 KPDT 061120
TAFPDT
TAF
KPDT 061120Z 0612/0712 26013KT P6SM BKN080
     FM061600 25011KT P6SM SCT150 BKN200
     FM070300 13006KT P6SM SCT090 BKN150=

USA.gov is the U.S. government's official web portal to all federal, state and local government web resources and services.